sensor_id;sensor_type;location;lat;lon;timestamp;pressure;altitude;pressure_sealevel;temperature;humidity
34925;BME280;21130;51.728;8.748;2023-07-28T00:00:17;99343.00;;;15.93;100.00
34925;BME280;21130;51.728;8.748;2023-07-28T00:02:44;99339.38;;;15.93;100.00
34925;BME280;21130;51.728;8.748;2023-07-28T00:05:10;99342.78;;;15.90;100.00
34925;BME280;21130;51.728;8.748;2023-07-28T00:07:37;99338.88;;;15.91;100.00
34925;BME280;21130;51.728;8.748;2023-07-28T00:10:04;99331.28;;;15.91;100.00
34925;BME280;21130;51.728;8.748;2023-07-28T00:12:30;99338.88;;;15.91;100.00
34925;BME280;21130;51.728;8.748;2023-07-28T00:14:58;99345.56;;;15.90;100.00
34925;BME280;21130;51.728;8.748;2023-07-28T00:17:25;99350.59;;;15.93;100.00
34925;BME280;21130;51.728;8.748;2023-07-28T00:19:52;99336.59;;;15.93;100.00
34925;BME280;21130;51.728;8.748;2023-07-28T00:22:18;99340.22;;;15.93;100.00
34925;BME280;21130;51.728;8.748;2023-07-28T00:24:44;99341.03;;;15.94;100.00
34925;BME280;21130;51.728;8.748;2023-07-28T00:27:11;99338.75;;;15.96;100.00
34925;BME280;21130;51.728;8.748;2023-07-28T00:29:40;99346.09;;;15.92;100.00
34925;BME280;21130;51.728;8.748;2023-07-28T00:32:08;99346.09;;;15.92;100.00
34925;BME280;21130;51.728;8.748;2023-07-28T00:34:35;99334.38;;;15.90;100.00
34925;BME280;21130;51.728;8.748;2023-07-28T00:37:01;99331.09;;;15.88;100.00
34925;BME280;21130;51.728;8.748;2023-07-28T00:39:28;99332.75;;;15.89;100.00
34925;BME280;21130;51.728;8.748;2023-07-28T00:41:54;99325.50;;;15.88;100.00
34925;BME280;21130;51.728;8.748;2023-07-28T00:44:21;99332.75;;;15.89;100.00
34925;BME280;21130;51.728;8.748;2023-07-28T00:46:47;99323.81;;;15.87;100.00
34925;BME280;21130;51.728;8.748;2023-07-28T00:49:16;99324.66;;;15.87;100.00
34925;BME280;21130;51.728;8.748;2023-07-28T00:51:42;99321.66;;;15.84;100.00
34925;BME280;21130;51.728;8.748;2023-07-28T00:54:09;99325.78;;;15.86;100.00
34925;BME280;21130;51.728;8.748;2023-07-28T00:56:36;99313.56;;;15.82;100.00
34925;BME280;21130;51.728;8.748;2023-07-28T00:59:02;99335.72;;;15.79;100.00
34925;BME280;21130;51.728;8.748;2023-07-28T01:01:28;99328.16;;;15.79;100.00
34925;BME280;21130;51.728;8.748;2023-07-28T01:03:55;99313.06;;;15.80;100.00
34925;BME280;21130;51.728;8.748;2023-07-28T01:06:31;99316.97;;;15.79;100.00
34925;BME280;21130;51.728;8.748;2023-07-28T01:09:02;99316.44;;;15.77;100.00
34925;BME280;21130;51.728;8.748;2023-07-28T01:11:29;99328.78;;;15.76;100.00
34925;BME280;21130;51.728;8.748;2023-07-28T01:13:56;99319.56;;;15.75;100.00
34925;BME280;21130;51.728;8.748;2023-07-28T01:16:22;99325.69;;;15.77;100.00
34925;BME280;21130;51.728;8.748;2023-07-28T01:18:49;99328.50;;;15.77;100.00
34925;BME280;21130;51.728;8.748;2023-07-28T01:21:20;99334.69;;;15.74;100.00
34925;BME280;21130;51.728;8.748;2023-07-28T01:24:06;99333.31;;;15.72;100.00
34925;BME280;21130;51.728;8.748;2023-07-28T01:26:36;99328.88;;;15.71;100.00
34925;BME280;21130;51.728;8.748;2023-07-28T01:29:03;99332.22;;;15.73;100.00
34925;BME280;21130;51.728;8.748;2023-07-28T01:31:30;99335.31;;;15.71;100.00
34925;BME280;21130;51.728;8.748;2023-07-28T01:33:57;99333.03;;;15.73;100.00
34925;BME280;21130;51.728;8.748;2023-07-28T01:36:24;99324.63;;;15.73;100.00
34925;BME280;21130;51.728;8.748;2023-07-28T01:38:50;99327.97;;;15.75;100.00
34925;BME280;21130;51.728;8.748;2023-07-28T01:41:17;99325.16;;;15.75;100.00
34925;BME280;21130;51.728;8.748;2023-07-28T01:43:45;99327.97;;;15.75;100.00
34925;BME280;21130;51.728;8.748;2023-07-28T01:46:11;99326.63;;;15.73;100.00
34925;BME280;21130;51.728;8.748;2023-07-28T01:48:37;99328.59;;;15.72;100.00
34925;BME280;21130;51.728;8.748;2023-07-28T01:51:04;99319.56;;;15.75;100.00
34925;BME280;21130;51.728;8.748;2023-07-28T01:53:31;99329.59;;;15.76;100.00
34925;BME280;21130;51.728;8.748;2023-07-28T01:55:57;99329.59;;;15.76;100.00
34925;BME280;21130;51.728;8.748;2023-07-28T01:58:26;99335.81;;;15.73;100.00
34925;BME280;21130;51.728;8.748;2023-07-28T02:00:53;99335.00;;;15.73;100.00
34925;BME280;21130;51.728;8.748;2023-07-28T02:03:20;99336.34;;;15.75;100.00
34925;BME280;21130;51.728;8.748;2023-07-28T02:05:46;99333.22;;;15.77;100.00
34925;BME280;21130;51.728;8.748;2023-07-28T02:08:13;99336.25;;;15.81;100.00
34925;BME280;21130;51.728;8.748;2023-07-28T02:10:39;99328.97;;;15.80;100.00
34925;BME280;21130;51.728;8.748;2023-07-28T02:13:05;99332.31;;;15.82;100.00
34925;BME280;21130;51.728;8.748;2023-07-28T02:15:32;99335.72;;;15.79;100.00
34925;BME280;21130;51.728;8.748;2023-07-28T02:18:00;99338.00;;;15.76;100.00
34925;BME280;21130;51.728;8.748;2023-07-28T02:20:26;99335.22;;;15.76;100.00
34925;BME280;21130;51.728;8.748;2023-07-28T02:22:53;99340.50;;;15.78;100.00
34925;BME280;21130;51.728;8.748;2023-07-28T02:25:19;99336.66;;;15.74;100.00
34925;BME280;21130;51.728;8.748;2023-07-28T02:27:46;99348.66;;;15.74;100.00
34925;BME280;21130;51.728;8.748;2023-07-28T02:30:13;99348.56;;;15.80;100.00
34925;BME280;21130;51.728;8.748;2023-07-28T02:32:41;99350.00;;;15.77;100.00
34925;BME280;21130;51.728;8.748;2023-07-28T02:35:09;99350.00;;;15.77;100.00
34925;BME280;21130;51.728;8.748;2023-07-28T02:37:35;99360.72;;;15.75;100.00
34925;BME280;21130;51.728;8.748;2023-07-28T02:40:02;99353.97;;;15.76;100.00
34925;BME280;21130;51.728;8.748;2023-07-28T02:42:29;99355.41;;;15.73;100.00
34925;BME280;21130;51.728;8.748;2023-07-28T02:44:55;99361.53;;;15.75;100.00
34925;BME280;21130;51.728;8.748;2023-07-28T02:47:22;99354.88;;;15.71;100.00
34925;BME280;21130;51.728;8.748;2023-07-28T02:49:48;99359.34;;;15.72;100.00
34925;BME280;21130;51.728;8.748;2023-07-28T02:52:16;99356.56;;;15.72;100.00
34925;BME280;21130;51.728;8.748;2023-07-28T02:54:43;99354.34;;;15.69;100.00
34925;BME280;21130;51.728;8.748;2023-07-28T02:57:09;99363.34;;;15.66;100.00
34925;BME280;21130;51.728;8.748;2023-07-28T02:59:35;99373.34;;;15.72;100.00
34925;BME280;21130;51.728;8.748;2023-07-28T03:02:02;99365.53;;;15.69;100.00
34925;BME280;21130;51.728;8.748;2023-07-28T03:04:29;99363.56;;;15.70;100.00
34925;BME280;21130;51.728;8.748;2023-07-28T03:06:55;99371.44;;;15.68;100.00
34925;BME280;21130;51.728;8.748;2023-07-28T03:09:23;99374.22;;;15.68;100.00
34925;BME280;21130;51.728;8.748;2023-07-28T03:11:50;99369.16;;;15.70;100.00
34925;BME280;21130;51.728;8.748;2023-07-28T03:14:16;99370.22;;;15.74;100.00
34925;BME280;21130;51.728;8.748;2023-07-28T03:16:43;99376.97;;;15.73;100.00
34925;BME280;21130;51.728;8.748;2023-07-28T03:19:09;99370.53;;;15.72;100.00
34925;BME280;21130;51.728;8.748;2023-07-28T03:21:36;99378.94;;;15.72;100.00
34925;BME280;21130;51.728;8.748;2023-07-28T03:24:03;99378.16;;;15.67;100.00
34925;BME280;21130;51.728;8.748;2023-07-28T03:26:30;99378.59;;;15.74;100.00
34925;BME280;21130;51.728;8.748;2023-07-28T03:28:57;99382.84;;;15.71;100.00
34925;BME280;21130;51.728;8.748;2023-07-28T03:31:23;99382.31;;;15.69;100.00
34925;BME280;21130;51.728;8.748;2023-07-28T03:33:50;99382.84;;;15.71;100.00
34925;BME280;21130;51.728;8.748;2023-07-28T03:36:17;99394.88;;;15.72;100.00
34925;BME280;21130;51.728;8.748;2023-07-28T03:38:44;99394.88;;;15.72;100.00
34925;BME280;21130;51.728;8.748;2023-07-28T03:41:11;99396.53;;;15.73;100.00
34925;BME280;21130;51.728;8.748;2023-07-28T03:43:39;99389.81;;;15.74;100.00
34925;BME280;21130;51.728;8.748;2023-07-28T03:46:06;99392.59;;;15.74;100.00
34925;BME280;21130;51.728;8.748;2023-07-28T03:48:32;99391.97;;;15.77;100.00
34925;BME280;21130;51.728;8.748;2023-07-28T03:50:59;99393.41;;;15.74;100.00
34925;BME280;21130;51.728;8.748;2023-07-28T03:53:25;99398.19;;;15.74;100.00
34925;BME280;21130;51.728;8.748;2023-07-28T03:55:52;99396.75;;;15.76;100.00
34925;BME280;21130;51.728;8.748;2023-07-28T03:58:18;99388.34;;;15.76;100.00
34925;BME280;21130;51.728;8.748;2023-07-28T04:00:46;99399.25;;;15.78;100.00
34925;BME280;21130;51.728;8.748;2023-07-28T04:03:12;99393.34;;;15.80;100.00
34925;BME280;21130;51.728;8.748;2023-07-28T04:05:38;99403.16;;;15.77;100.00
34925;BME280;21130;51.728;8.748;2023-07-28T04:08:05;99395.84;;;15.81;100.00
34925;BME280;21130;51.728;8.748;2023-07-28T04:10:31;99402.56;;;15.80;100.00
34925;BME280;21130;51.728;8.748;2023-07-28T04:12:58;99394.47;;;15.79;100.00
34925;BME280;21130;51.728;8.748;2023-07-28T04:15:24;99403.69;;;15.79;100.00
34925;BME280;21130;51.728;8.748;2023-07-28T04:17:52;99397.81;;;15.81;100.00
34925;BME280;21130;51.728;8.748;2023-07-28T04:20:19;99399.25;;;15.78;100.00
34925;BME280;21130;51.728;8.748;2023-07-28T04:22:46;99394.38;;;15.84;100.00
34925;BME280;21130;51.728;8.748;2023-07-28T04:25:12;99403.41;;;15.81;100.00
34925;BME280;21130;51.728;8.748;2023-07-28T04:27:39;99398.09;;;15.79;100.00
34925;BME280;21130;51.728;8.748;2023-07-28T04:30:06;99401.13;;;15.83;100.00
34925;BME280;21130;51.728;8.748;2023-07-28T04:32:33;99408.38;;;15.84;100.00
34925;BME280;21130;51.728;8.748;2023-07-28T04:35:00;99406.72;;;15.83;100.00
34925;BME280;21130;51.728;8.748;2023-07-28T04:37:27;99417.59;;;15.84;100.00
34925;BME280;21130;51.728;8.748;2023-07-28T04:39:53;99412.31;;;15.83;100.00
34925;BME280;21130;51.728;8.748;2023-07-28T04:42:20;99411.38;;;15.87;100.00
34925;BME280;21130;51.728;8.748;2023-07-28T04:44:46;99405.78;;;15.87;100.00
34925;BME280;21130;51.728;8.748;2023-07-28T04:47:13;99416.06;;;15.92;100.00
34925;BME280;21130;51.728;8.748;2023-07-28T04:49:39;99411.09;;;15.89;100.00
34925;BME280;21130;51.728;8.748;2023-07-28T04:52:07;99416.59;;;15.94;100.00
34925;BME280;21130;51.728;8.748;2023-07-28T04:54:34;99418.56;;;15.93;100.00
34925;BME280;21130;51.728;8.748;2023-07-28T04:57:00;99423.34;;;15.93;100.00
34925;BME280;21130;51.728;8.748;2023-07-28T04:59:27;99428.00;;;15.97;100.00
34925;BME280;21130;51.728;8.748;2023-07-28T05:01:54;99423.34;;;15.93;100.00
34925;BME280;21130;51.728;8.748;2023-07-28T05:04:20;99429.03;;;16.02;100.00
34925;BME280;21130;51.728;8.748;2023-07-28T05:06:47;99431.84;;;16.02;100.00
34925;BME280;21130;51.728;8.748;2023-07-28T05:09:15;99430.41;;;16.04;100.00
34925;BME280;21130;51.728;8.748;2023-07-28T05:11:41;99419.19;;;16.04;100.00
34925;BME280;21130;51.728;8.748;2023-07-28T05:14:07;99424.19;;;16.07;100.00
34925;BME280;21130;51.728;8.748;2023-07-28T05:16:35;99429.38;;;16.14;100.00
34925;BME280;21130;51.728;8.748;2023-07-28T05:19:01;99431.34;;;16.13;100.00
34925;BME280;21130;51.728;8.748;2023-07-28T05:21:28;99434.34;;;16.17;100.00
34925;BME280;21130;51.728;8.748;2023-07-28T05:23:54;99426.72;;;16.23;100.00
34925;BME280;21130;51.728;8.748;2023-07-28T05:26:22;99427.75;;;16.27;100.00
34925;BME280;21130;51.728;8.748;2023-07-28T05:28:48;99430.53;;;16.27;100.00
34925;BME280;21130;51.728;8.748;2023-07-28T05:31:15;99430.75;;;16.30;100.00
34925;BME280;21130;51.728;8.748;2023-07-28T05:33:42;99426.00;;;16.31;100.00
34925;BME280;21130;51.728;8.748;2023-07-28T05:36:08;99418.50;;;16.40;100.00
34925;BME280;21130;51.728;8.748;2023-07-28T05:38:35;99429.94;;;16.44;100.00
34925;BME280;21130;51.728;8.748;2023-07-28T05:41:02;99444.13;;;16.47;100.00
34925;BME280;21130;51.728;8.748;2023-07-28T05:43:30;99433.88;;;16.56;100.00
34925;BME280;21130;51.728;8.748;2023-07-28T05:45:59;99430.25;;;16.56;100.00
34925;BME280;21130;51.728;8.748;2023-07-28T05:48:26;99429.22;;;16.66;100.00
34925;BME280;21130;51.728;8.748;2023-07-28T05:50:52;99433.97;;;16.65;100.00
34925;BME280;21130;51.728;8.748;2023-07-28T05:53:20;99431.81;;;16.76;100.00
34925;BME280;21130;51.728;8.748;2023-07-28T05:55:47;99430.56;;;16.82;100.00
34925;BME280;21130;51.728;8.748;2023-07-28T05:58:14;99432.53;;;16.95;100.00
34925;BME280;21130;51.728;8.748;2023-07-28T06:00:42;99424.34;;;16.99;100.00
34925;BME280;21130;51.728;8.748;2023-07-28T06:03:10;99431.16;;;17.06;100.00
34925;BME280;21130;51.728;8.748;2023-07-28T06:05:38;99436.78;;;17.06;100.00
34925;BME280;21130;51.728;8.748;2023-07-28T06:08:05;99438.00;;;17.14;100.00
34925;BME280;21130;51.728;8.748;2023-07-28T06:10:31;99445.59;;;17.14;100.00
34925;BME280;21130;51.728;8.748;2023-07-28T06:12:58;99446.22;;;17.11;100.00
34925;BME280;21130;51.728;8.748;2023-07-28T06:15:24;99451.84;;;17.11;100.00
34925;BME280;21130;51.728;8.748;2023-07-28T06:17:52;99451.38;;;17.17;100.00
34925;BME280;21130;51.728;8.748;2023-07-28T06:20:19;99444.31;;;17.20;100.00
34925;BME280;21130;51.728;8.748;2023-07-28T06:22:45;99439.34;;;17.17;100.00
34925;BME280;21130;51.728;8.748;2023-07-28T06:25:11;99446.81;;;17.21;100.00
34925;BME280;21130;51.728;8.748;2023-07-28T06:27:38;99443.25;;;17.30;100.00
34925;BME280;21130;51.728;8.748;2023-07-28T06:30:06;99449.09;;;17.33;100.00
34925;BME280;21130;51.728;8.748;2023-07-28T06:32:32;99453.94;;;17.41;100.00
34925;BME280;21130;51.728;8.748;2023-07-28T06:35:00;99455.69;;;17.51;100.00
34925;BME280;21130;51.728;8.748;2023-07-28T06:37:46;99450.47;;;17.58;100.00
34925;BME280;21130;51.728;8.748;2023-07-28T06:40:31;99461.22;;;17.65;100.00
34925;BME280;21130;51.728;8.748;2023-07-28T06:42:59;99460.59;;;17.68;100.00
34925;BME280;21130;51.728;8.748;2023-07-28T06:45:26;99470.97;;;17.67;100.00
34925;BME280;21130;51.728;8.748;2023-07-28T06:47:54;99472.66;;;17.68;100.00
34925;BME280;21130;51.728;8.748;2023-07-28T06:50:22;99476.16;;;17.74;100.00
34925;BME280;21130;51.728;8.748;2023-07-28T06:52:48;99480.22;;;17.82;100.00
34925;BME280;21130;51.728;8.748;2023-07-28T06:55:15;99477.41;;;17.82;100.00
34925;BME280;21130;51.728;8.748;2023-07-28T06:57:41;99486.13;;;17.80;100.00
34925;BME280;21130;51.728;8.748;2023-07-28T07:00:09;99491.31;;;17.87;100.00
34925;BME280;21130;51.728;8.748;2023-07-28T07:02:36;99481.13;;;17.77;100.00
34925;BME280;21130;51.728;8.748;2023-07-28T07:05:03;99483.28;;;17.94;100.00
34925;BME280;21130;51.728;8.748;2023-07-28T07:07:31;99488.63;;;18.04;100.00
34925;BME280;21130;51.728;8.748;2023-07-28T07:09:58;99489.66;;;18.08;100.00
34925;BME280;21130;51.728;8.748;2023-07-28T07:12:24;99488.69;;;18.13;100.00
34925;BME280;21130;51.728;8.748;2023-07-28T07:14:51;99487.34;;;18.10;100.00
34925;BME280;21130;51.728;8.748;2023-07-28T07:17:18;99493.84;;;18.20;100.00
34925;BME280;21130;51.728;8.748;2023-07-28T07:19:44;99494.81;;;18.15;100.00
34925;BME280;21130;51.728;8.748;2023-07-28T07:22:10;99496.81;;;18.14;100.00
34925;BME280;21130;51.728;8.748;2023-07-28T07:24:38;99494.78;;;18.06;100.00
34925;BME280;21130;51.728;8.748;2023-07-28T07:27:06;99492.66;;;18.12;100.00
34925;BME280;21130;51.728;8.748;2023-07-28T07:29:36;99498.53;;;18.02;100.00
34925;BME280;21130;51.728;8.748;2023-07-28T07:32:04;99492.53;;;17.95;100.00
34925;BME280;21130;51.728;8.748;2023-07-28T07:34:31;99504.28;;;17.97;100.00
34925;BME280;21130;51.728;8.748;2023-07-28T07:36:57;99505.19;;;18.06;100.00
34925;BME280;21130;51.728;8.748;2023-07-28T07:39:24;99510.91;;;18.01;100.00
34925;BME280;21130;51.728;8.748;2023-07-28T07:41:52;99511.22;;;17.99;100.00
34925;BME280;21130;51.728;8.748;2023-07-28T07:44:18;99518.50;;;18.00;100.00
34925;BME280;21130;51.728;8.748;2023-07-28T07:46:45;99530.06;;;17.99;100.00
34925;BME280;21130;51.728;8.748;2023-07-28T07:49:11;99526.09;;;18.00;100.00
34925;BME280;21130;51.728;8.748;2023-07-28T07:51:38;99526.22;;;17.95;100.00
34925;BME280;21130;51.728;8.748;2023-07-28T07:54:04;99522.50;;;17.85;100.00
34925;BME280;21130;51.728;8.748;2023-07-28T07:56:31;99525.00;;;17.87;100.00
34925;BME280;21130;51.728;8.748;2023-07-28T07:58:59;99530.38;;;17.97;100.00
34925;BME280;21130;51.728;8.748;2023-07-28T08:01:26;99527.13;;;18.04;100.00
34925;BME280;21130;51.728;8.748;2023-07-28T08:03:52;99536.41;;;18.13;100.00
34925;BME280;21130;51.728;8.748;2023-07-28T08:06:19;99535.47;;;18.18;100.00
34925;BME280;21130;51.728;8.748;2023-07-28T08:08:45;99544.41;;;18.20;100.00
34925;BME280;21130;51.728;8.748;2023-07-28T08:11:12;99548.44;;;18.27;100.00
34925;BME280;21130;51.728;8.748;2023-07-28T08:13:38;99544.66;;;18.32;100.00
34925;BME280;21130;51.728;8.748;2023-07-28T08:16:06;99549.38;;;18.45;100.00
34925;BME280;21130;51.728;8.748;2023-07-28T08:18:34;99548.38;;;18.72;100.00
34925;BME280;21130;51.728;8.748;2023-07-28T08:21:00;99545.59;;;19.04;100.00
34925;BME280;21130;51.728;8.748;2023-07-28T08:23:26;99539.53;;;19.28;100.00
34925;BME280;21130;51.728;8.748;2023-07-28T08:25:53;99534.34;;;19.12;100.00
34925;BME280;21130;51.728;8.748;2023-07-28T08:28:20;99548.25;;;19.17;100.00
34925;BME280;21130;51.728;8.748;2023-07-28T08:30:54;99533.88;;;19.19;100.00
34925;BME280;21130;51.728;8.748;2023-07-28T08:33:22;99541.34;;;19.24;100.00
34925;BME280;21130;51.728;8.748;2023-07-28T08:35:49;99539.00;;;19.26;100.00
34925;BME280;21130;51.728;8.748;2023-07-28T08:38:15;99540.34;;;19.19;100.00
34925;BME280;21130;51.728;8.748;2023-07-28T08:40:43;99541.47;;;19.18;100.00
34925;BME280;21130;51.728;8.748;2023-07-28T08:43:09;99537.66;;;19.14;100.00
34925;BME280;21130;51.728;8.748;2023-07-28T08:45:36;99546.97;;;19.32;100.00
34925;BME280;21130;51.728;8.748;2023-07-28T08:48:03;99538.72;;;19.36;100.00
34925;BME280;21130;51.728;8.748;2023-07-28T08:50:33;99549.03;;;19.49;100.00
34925;BME280;21130;51.728;8.748;2023-07-28T08:52:59;99548.50;;;19.56;100.00
34925;BME280;21130;51.728;8.748;2023-07-28T08:55:26;99548.94;;;19.89;100.00
34925;BME280;21130;51.728;8.748;2023-07-28T08:57:52;99548.09;;;20.15;100.00
34925;BME280;21130;51.728;8.748;2023-07-28T09:00:19;99542.28;;;19.94;100.00
34925;BME280;21130;51.728;8.748;2023-07-28T09:02:48;99555.53;;;19.93;100.00
34925;BME280;21130;51.728;8.748;2023-07-28T09:05:20;99555.03;;;19.91;100.00
34925;BME280;21130;51.728;8.748;2023-07-28T09:07:50;99558.88;;;19.95;100.00
34925;BME280;21130;51.728;8.748;2023-07-28T09:10:18;99566.50;;;20.12;100.00
34925;BME280;21130;51.728;8.748;2023-07-28T09:12:44;99564.16;;;20.23;100.00
34925;BME280;21130;51.728;8.748;2023-07-28T09:15:11;99557.53;;;20.19;100.00
34925;BME280;21130;51.728;8.748;2023-07-28T09:17:41;99571.94;;;20.08;100.00
34925;BME280;21130;51.728;8.748;2023-07-28T09:20:12;99572.94;;;19.78;100.00
34925;BME280;21130;51.728;8.748;2023-07-28T09:22:39;99576.72;;;19.73;100.00
34925;BME280;21130;51.728;8.748;2023-07-28T09:25:13;99590.41;;;19.57;100.00
34925;BME280;21130;51.728;8.748;2023-07-28T09:27:40;99589.25;;;19.58;100.00
34925;BME280;21130;51.728;8.748;2023-07-28T09:30:07;99592.66;;;19.29;100.00
34925;BME280;21130;51.728;8.748;2023-07-28T09:32:33;99592.47;;;19.26;100.00
34925;BME280;21130;51.728;8.748;2023-07-28T09:35:06;99596.13;;;19.26;100.00
34925;BME280;21130;51.728;8.748;2023-07-28T09:37:37;99595.63;;;19.33;100.00
34925;BME280;21130;51.728;8.748;2023-07-28T09:40:06;99592.53;;;19.43;100.00
34925;BME280;21130;51.728;8.748;2023-07-28T09:42:38;99595.81;;;19.76;100.00
34925;BME280;21130;51.728;8.748;2023-07-28T09:45:05;99594.66;;;20.03;100.00
34925;BME280;21130;51.728;8.748;2023-07-28T09:47:33;99591.84;;;20.21;100.00
34925;BME280;21130;51.728;8.748;2023-07-28T09:50:02;99587.03;;;20.47;100.00
34925;BME280;21130;51.728;8.748;2023-07-28T09:52:33;99593.13;;;20.76;100.00
34925;BME280;21130;51.728;8.748;2023-07-28T09:55:05;99585.75;;;21.01;100.00
34925;BME280;21130;51.728;8.748;2023-07-28T09:57:36;99582.94;;;21.39;100.00
34925;BME280;21130;51.728;8.748;2023-07-28T10:00:08;99588.88;;;21.55;100.00
34925;BME280;21130;51.728;8.748;2023-07-28T10:02:37;99584.72;;;22.03;100.00
34925;BME280;21130;51.728;8.748;2023-07-28T10:05:04;99585.47;;;22.12;100.00
34925;BME280;21130;51.728;8.748;2023-07-28T10:07:32;99577.22;;;22.61;100.00
34925;BME280;21130;51.728;8.748;2023-07-28T10:09:59;99584.66;;;22.66;100.00
34925;BME280;21130;51.728;8.748;2023-07-28T10:12:27;99589.06;;;22.21;100.00
34925;BME280;21130;51.728;8.748;2023-07-28T10:15:00;99581.81;;;22.12;100.00
34925;BME280;21130;51.728;8.748;2023-07-28T10:17:32;99587.75;;;21.98;100.00
34925;BME280;21130;51.728;8.748;2023-07-28T10:20:01;99584.00;;;22.06;100.00
34925;BME280;21130;51.728;8.748;2023-07-28T10:22:32;99582.28;;;21.93;100.00
34925;BME280;21130;51.728;8.748;2023-07-28T10:25:00;99585.53;;;21.83;100.00
34925;BME280;21130;51.728;8.748;2023-07-28T10:27:32;99581.41;;;22.01;100.00
34925;BME280;21130;51.728;8.748;2023-07-28T10:30:02;99586.91;;;22.18;100.00
34925;BME280;21130;51.728;8.748;2023-07-28T10:32:38;99577.06;;;22.46;100.00
34925;BME280;21130;51.728;8.748;2023-07-28T10:35:07;99576.34;;;22.49;100.00
34925;BME280;21130;51.728;8.748;2023-07-28T10:37:35;99581.75;;;23.08;100.00
34925;BME280;21130;51.728;8.748;2023-07-28T10:40:23;99576.91;;;23.08;100.00
34925;BME280;21130;51.728;8.748;2023-07-28T10:42:51;99579.72;;;23.08;100.00
34925;BME280;21130;51.728;8.748;2023-07-28T10:45:18;99580.25;;;22.77;100.00
34925;BME280;21130;51.728;8.748;2023-07-28T10:47:46;99578.91;;;22.62;100.00
34925;BME280;21130;51.728;8.748;2023-07-28T10:50:13;99584.28;;;22.13;100.00
34925;BME280;21130;51.728;8.748;2023-07-28T10:52:40;99580.72;;;22.46;100.00
34925;BME280;21130;51.728;8.748;2023-07-28T10:58:13;99582.53;;;22.30;100.00
34925;BME280;21130;51.728;8.748;2023-07-28T11:00:40;99578.03;;;22.50;100.00
34925;BME280;21130;51.728;8.748;2023-07-28T11:03:08;99576.66;;;23.14;100.00
34925;BME280;21130;51.728;8.748;2023-07-28T11:05:35;99575.63;;;23.80;100.00
34925;BME280;21130;51.728;8.748;2023-07-28T11:08:03;99576.22;;;23.48;100.00
34925;BME280;21130;51.728;8.748;2023-07-28T11:10:31;99569.72;;;23.48;100.00
34925;BME280;21130;51.728;8.748;2023-07-28T11:12:59;99585.13;;;23.01;100.00
34925;BME280;21130;51.728;8.748;2023-07-28T11:15:26;99574.25;;;22.91;100.00
34925;BME280;21130;51.728;8.748;2023-07-28T11:17:53;99570.41;;;22.62;100.00
34925;BME280;21130;51.728;8.748;2023-07-28T11:20:23;99579.56;;;22.47;100.00
34925;BME280;21130;51.728;8.748;2023-07-28T11:22:52;99575.44;;;22.90;100.00
34925;BME280;21130;51.728;8.748;2023-07-28T11:25:19;99580.09;;;23.19;100.00
34925;BME280;21130;51.728;8.748;2023-07-28T11:27:46;99580.91;;;23.69;100.00
34925;BME280;21130;51.728;8.748;2023-07-28T11:30:15;99577.53;;;23.76;100.00
34925;BME280;21130;51.728;8.748;2023-07-28T11:32:43;99575.72;;;23.71;100.00
34925;BME280;21130;51.728;8.748;2023-07-28T11:35:12;99574.09;;;23.58;100.00
34925;BME280;21130;51.728;8.748;2023-07-28T11:37:41;99575.72;;;23.96;100.00
34925;BME280;21130;51.728;8.748;2023-07-28T11:40:09;99578.78;;;24.03;100.00
34925;BME280;21130;51.728;8.748;2023-07-28T11:42:37;99583.44;;;24.23;100.00
34925;BME280;21130;51.728;8.748;2023-07-28T11:45:05;99578.19;;;23.85;100.00
34925;BME280;21130;51.728;8.748;2023-07-28T11:47:32;99581.41;;;23.83;100.00
34925;BME280;21130;51.728;8.748;2023-07-28T11:49:59;99585.66;;;24.30;100.00
34925;BME280;21130;51.728;8.748;2023-07-28T11:52:30;99580.34;;;24.85;100.00
34925;BME280;21130;51.728;8.748;2023-07-28T11:54:58;99585.25;;;24.44;100.00
34925;BME280;21130;51.728;8.748;2023-07-28T11:57:25;99582.69;;;25.11;100.00
34925;BME280;21130;51.728;8.748;2023-07-28T11:59:52;99585.00;;;25.37;100.00
34925;BME280;21130;51.728;8.748;2023-07-28T12:02:24;99578.84;;;25.19;100.00
34925;BME280;21130;51.728;8.748;2023-07-28T12:04:52;99576.59;;;24.81;100.00
34925;BME280;21130;51.728;8.748;2023-07-28T12:07:27;99579.81;;;24.51;100.00
34925;BME280;21130;51.728;8.748;2023-07-28T12:09:54;99576.59;;;24.12;100.00
34925;BME280;21130;51.728;8.748;2023-07-28T12:12:27;99589.59;;;23.73;100.00
34925;BME280;21130;51.728;8.748;2023-07-28T12:14:54;99586.09;;;23.67;100.00
34925;BME280;21130;51.728;8.748;2023-07-28T12:17:22;99579.88;;;23.61;100.00
34925;BME280;21130;51.728;8.748;2023-07-28T12:20:02;99578.31;;;23.64;100.00
34925;BME280;21130;51.728;8.748;2023-07-28T12:22:32;99584.03;;;24.17;100.00
34925;BME280;21130;51.728;8.748;2023-07-28T12:24:59;99581.97;;;23.89;100.00
34925;BME280;21130;51.728;8.748;2023-07-28T12:27:27;99573.63;;;23.68;100.00
34925;BME280;21130;51.728;8.748;2023-07-28T12:29:53;99581.28;;;23.55;100.00
34925;BME280;21130;51.728;8.748;2023-07-28T12:32:20;99573.38;;;23.24;100.00
34925;BME280;21130;51.728;8.748;2023-07-28T12:34:47;99584.44;;;23.04;100.00
34925;BME280;21130;51.728;8.748;2023-07-28T12:37:14;99585.75;;;22.74;100.00
34925;BME280;21130;51.728;8.748;2023-07-28T12:39:41;99586.38;;;22.92;100.00
34925;BME280;21130;51.728;8.748;2023-07-28T12:42:09;99574.34;;;23.40;100.00
34925;BME280;21130;51.728;8.748;2023-07-28T12:44:38;99579.75;;;23.58;100.00
34925;BME280;21130;51.728;8.748;2023-07-28T12:47:05;99590.63;;;23.56;100.00
34925;BME280;21130;51.728;8.748;2023-07-28T12:49:32;99587.78;;;23.56;100.00
34925;BME280;21130;51.728;8.748;2023-07-28T12:52:00;99585.28;;;23.42;100.00
34925;BME280;21130;51.728;8.748;2023-07-28T12:54:27;99583.06;;;23.35;100.00